Time;durP1;ratioP1;P1;durP2;ratioP2;P2;SDS_P1;SDS_P2;PMS_P1;PMS_P2;Temp;Humidity;BMP_temperature;BMP_pressure;BME280_temperature;BME280_humidity;BME280_pressure;Samples;Min_cycle;Max_cycle;Signal;HPM_P1;HPM_P2
2022/05/05 00:00:33;;;;;;;8.82;4.30;;;8.80;99.90;;;;;;5057351;28;20024;-81
2022/05/05 00:02:59;;;;;;;9.88;4.85;;;8.80;99.90;;;;;;5075488;28;20047;-78
2022/05/05 00:05:25;;;;;;;10.55;4.95;;;8.90;99.90;;;;;;5058741;28;20028;-81
2022/05/05 00:07:50;;;;;;;8.00;4.18;;;8.90;99.90;;;;;;5077413;28;20099;-82
2022/05/05 00:15:44;;;;;;;7.50;4.75;;;9.00;99.90;;;;;;5078852;28;20117;-81
2022/05/05 00:18:13;;;;;;;8.48;4.78;;;9.10;99.90;;;;;;5061579;28;20028;-83
2022/05/05 00:20:39;;;;;;;9.85;4.45;;;9.10;99.90;;;;;;5079323;28;20024;-79
2022/05/05 00:23:05;;;;;;;5.78;4.13;;;9.10;99.90;;;;;;5079292;28;20431;-81
2022/05/05 00:25:31;;;;;;;9.55;4.15;;;9.10;99.90;;;;;;5078410;28;20035;-80
2022/05/05 00:27:56;;;;;;;12.32;4.82;;;9.10;99.90;;;;;;5078262;28;20028;-82
2022/05/05 00:30:22;;;;;;;10.30;5.20;;;9.20;99.90;;;;;;5060349;28;20025;-80
2022/05/05 00:32:47;;;;;;;8.43;4.78;;;9.20;99.90;;;;;;5077711;28;20024;-81
2022/05/05 00:35:13;;;;;;;7.15;4.57;;;9.20;99.90;;;;;;5078232;28;20035;-81
2022/05/05 00:37:39;;;;;;;13.52;4.85;;;9.20;99.90;;;;;;5078145;28;20026;-81
2022/05/05 00:40:05;;;;;;;9.05;4.65;;;9.20;99.90;;;;;;5078571;28;20030;-79
2022/05/05 00:42:31;;;;;;;9.18;4.53;;;9.20;99.90;;;;;;5078967;28;20082;-80
2022/05/05 00:44:57;;;;;;;8.55;4.22;;;9.20;99.90;;;;;;5079337;28;20029;-81
2022/05/05 00:47:22;;;;;;;9.80;3.97;;;9.20;99.90;;;;;;5060173;28;20161;-81
2022/05/05 00:49:49;;;;;;;7.35;4.30;;;9.20;99.90;;;;;;5077813;28;20028;-81
2022/05/05 00:52:15;;;;;;;9.25;4.72;;;9.30;99.90;;;;;;5077999;28;20483;-80
2022/05/05 00:54:40;;;;;;;6.05;3.72;;;9.30;99.90;;;;;;5077867;28;20082;-81
2022/05/05 00:57:08;;;;;;;8.20;4.38;;;9.30;99.90;;;;;;5060439;28;20502;-78
2022/05/05 00:59:35;;;;;;;9.00;4.50;;;9.30;99.90;;;;;;5060078;28;20024;-80
2022/05/05 01:02:02;;;;;;;11.02;3.85;;;9.30;99.90;;;;;;5077627;28;20020;-83
2022/05/05 01:04:28;;;;;;;10.82;5.18;;;9.30;99.90;;;;;;5077783;28;20542;-81
2022/05/05 01:06:53;;;;;;;8.98;4.93;;;9.20;99.90;;;;;;5077932;28;20025;-81
2022/05/05 01:09:20;;;;;;;11.25;5.03;;;9.20;99.90;;;;;;5077927;28;20023;-81
2022/05/05 01:11:45;;;;;;;12.48;4.93;;;9.20;99.90;;;;;;5059042;28;20028;-81
2022/05/05 01:14:14;;;;;;;8.38;4.63;;;9.20;99.90;;;;;;5077654;28;20024;-82
2022/05/05 01:16:40;;;;;;;11.57;5.50;;;9.30;99.90;;;;;;5075859;28;20050;-81
2022/05/05 01:19:06;;;;;;;8.15;4.15;;;9.30;99.90;;;;;;5058751;28;20030;-79
2022/05/05 01:21:32;;;;;;;10.93;4.88;;;9.30;99.90;;;;;;5077232;28;20107;-80
2022/05/05 01:23:57;;;;;;;11.88;4.95;;;9.30;99.90;;;;;;5058943;28;20021;-81
2022/05/05 01:29:08;;;;;;;8.45;4.80;;;9.30;99.90;;;;;;5078436;28;20134;-80
2022/05/05 01:31:34;;;;;;;10.48;4.60;;;9.30;99.90;;;;;;5060532;28;20020;-82
2022/05/05 01:33:59;;;;;;;12.40;4.78;;;9.30;99.90;;;;;;5078994;28;20029;-81
2022/05/05 01:36:25;;;;;;;12.32;4.78;;;9.30;99.90;;;;;;5078921;28;20028;-83
2022/05/05 01:38:51;;;;;;;10.38;5.50;;;9.30;99.90;;;;;;5060690;28;20411;-82
2022/05/05 01:41:16;;;;;;;7.53;4.85;;;9.30;99.90;;;;;;5082803;28;20028;-82
2022/05/05 01:43:44;;;;;;;7.25;4.28;;;9.30;99.90;;;;;;5085456;28;20062;-82
2022/05/05 01:46:10;;;;;;;11.55;4.43;;;9.40;99.90;;;;;;5067581;28;20027;-82
2022/05/05 01:48:36;;;;;;;7.28;4.53;;;9.40;99.90;;;;;;5086231;28;20021;-81
2022/05/05 01:51:02;;;;;;;10.05;5.00;;;9.40;99.90;;;;;;5070319;28;20044;-82
2022/05/05 01:53:36;;;;;;;9.52;4.70;;;9.40;99.90;;;;;;5086819;28;20050;-80
2022/05/05 01:56:13;;;;;;;8.27;4.53;;;9.40;99.90;;;;;;5076789;28;20017;-80
2022/05/05 01:58:44;;;;;;;7.45;4.60;;;9.40;99.90;;;;;;5076386;28;20024;-80
2022/05/05 02:01:11;;;;;;;9.48;4.60;;;9.40;99.90;;;;;;5076420;28;20099;-79
2022/05/05 02:03:37;;;;;;;9.77;4.90;;;9.40;99.90;;;;;;5059299;28;20447;-78
2022/05/05 02:06:03;;;;;;;10.60;5.05;;;9.40;99.90;;;;;;5058357;28;20092;-82
2022/05/05 02:08:28;;;;;;;9.88;4.80;;;9.40;99.90;;;;;;5058771;28;20048;-81
2022/05/05 02:10:55;;;;;;;8.25;4.18;;;9.50;99.90;;;;;;5058385;28;20357;-80
2022/05/05 02:13:21;;;;;;;10.07;5.15;;;9.40;99.90;;;;;;5075779;28;20016;-81
2022/05/05 02:15:47;;;;;;;11.95;5.57;;;9.40;99.90;;;;;;5058582;28;20174;-81
2022/05/05 02:18:14;;;;;;;9.82;5.75;;;9.40;99.90;;;;;;5076250;28;20040;-82
2022/05/05 02:20:40;;;;;;;10.77;4.63;;;9.40;99.90;;;;;;5076519;28;20151;-79
2022/05/05 02:23:07;;;;;;;11.65;5.25;;;9.40;99.90;;;;;;5076054;28;20056;-80
2022/05/05 02:25:33;;;;;;;8.52;5.03;;;9.40;99.90;;;;;;5058975;28;20020;-81
2022/05/05 02:27:59;;;;;;;14.27;6.05;;;9.40;99.90;;;;;;5075909;28;20036;-83
2022/05/05 02:30:26;;;;;;;12.77;4.85;;;9.40;99.90;;;;;;5058703;28;20107;-77
2022/05/05 02:32:52;;;;;;;11.15;5.38;;;9.40;99.90;;;;;;5077140;28;20484;-79
2022/05/05 02:35:18;;;;;;;8.70;5.57;;;9.40;99.90;;;;;;5076452;28;20036;-79
2022/05/05 02:40:29;;;;;;;11.88;5.07;;;9.40;99.90;;;;;;5075962;28;20088;-82
2022/05/05 02:42:58;;;;;;;6.45;4.47;;;9.40;99.90;;;;;;5075862;28;20055;-82
2022/05/05 02:45:24;;;;;;;8.48;5.07;;;9.40;99.90;;;;;;5056875;28;20027;-80
2022/05/05 02:47:50;;;;;;;9.85;4.43;;;9.40;99.90;;;;;;5076016;28;20051;-81
2022/05/05 02:50:17;;;;;;;9.70;5.05;;;9.40;99.90;;;;;;5058213;28;20024;-81
2022/05/05 02:52:43;;;;;;;9.77;4.90;;;9.40;99.90;;;;;;5075457;28;20021;-80
2022/05/05 02:55:09;;;;;;;7.72;5.28;;;9.30;99.90;;;;;;5057316;28;20033;-80
2022/05/05 02:57:35;;;;;;;11.65;5.15;;;9.30;99.90;;;;;;5057642;28;20606;-78
2022/05/05 03:00:01;;;;;;;9.43;5.85;;;9.30;99.90;;;;;;5056975;28;20035;-80
2022/05/05 03:02:27;;;;;;;11.13;5.65;;;9.20;99.90;;;;;;5057245;28;20562;-80
2022/05/05 03:04:53;;;;;;;9.43;5.35;;;9.20;99.90;;;;;;5057282;28;20029;-83
2022/05/05 03:07:18;;;;;;;12.38;5.18;;;9.20;99.90;;;;;;5076110;28;20024;-82
2022/05/05 03:09:44;;;;;;;9.32;5.00;;;9.20;99.90;;;;;;5075707;28;20013;-80
2022/05/05 03:12:10;;;;;;;9.32;5.50;;;9.10;99.90;;;;;;5075136;28;20074;-79
2022/05/05 03:14:37;;;;;;;10.13;5.15;;;9.10;99.90;;;;;;5075158;28;20536;-80
2022/05/05 03:17:03;;;;;;;12.27;5.32;;;9.10;99.90;;;;;;5057046;28;20036;-80
2022/05/05 03:19:29;;;;;;;11.60;5.65;;;9.00;99.90;;;;;;5075232;28;20390;-80
2022/05/05 03:21:55;;;;;;;10.38;5.93;;;9.00;99.90;;;;;;5056781;28;20029;-79
2022/05/05 03:24:21;;;;;;;12.65;6.10;;;9.00;99.90;;;;;;5057049;28;20538;-80
2022/05/05 03:26:47;;;;;;;10.55;5.80;;;9.00;99.90;;;;;;5056434;28;20051;-81
2022/05/05 03:29:12;;;;;;;9.73;5.47;;;8.90;99.90;;;;;;5056806;28;20074;-81
2022/05/05 03:31:38;;;;;;;13.45;6.00;;;8.90;99.90;;;;;;5056946;28;20020;-78
2022/05/05 03:34:05;;;;;;;10.40;5.90;;;8.80;99.90;;;;;;5089997;28;20069;-78
2022/05/05 03:36:30;;;;;;;13.48;5.38;;;8.80;99.90;;;;;;5095891;28;20043;-79
2022/05/05 03:38:56;;;;;;;10.73;5.75;;;8.80;99.90;;;;;;5096056;28;20016;-81
2022/05/05 03:41:22;;;;;;;15.05;5.57;;;8.80;99.90;;;;;;5079192;28;20017;-79
2022/05/05 03:43:48;;;;;;;9.10;4.90;;;8.80;99.90;;;;;;5096350;28;20036;-80
2022/05/05 03:46:14;;;;;;;11.40;5.88;;;8.70;99.90;;;;;;5079064;28;20054;-81
2022/05/05 03:48:39;;;;;;;11.80;5.55;;;8.70;99.90;;;;;;5096182;28;20016;-81
2022/05/05 03:51:05;;;;;;;11.40;6.15;;;8.60;99.90;;;;;;5059870;28;20143;-81
2022/05/05 03:53:31;;;;;;;10.10;6.03;;;8.60;99.90;;;;;;5074805;28;20020;-80
2022/05/05 03:55:57;;;;;;;12.32;6.13;;;8.50;99.90;;;;;;5062278;28;20017;-78
2022/05/05 03:58:22;;;;;;;14.35;6.95;;;8.50;99.90;;;;;;5086801;28;20033;-81
2022/05/05 04:00:48;;;;;;;13.85;6.60;;;8.50;99.90;;;;;;5084323;28;20037;-82
2022/05/05 04:03:31;;;;;;;12.82;6.30;;;8.40;99.90;;;;;;5061927;28;20070;-81
2022/05/05 04:06:06;;;;;;;10.98;6.13;;;8.50;99.90;;;;;;5057359;28;20468;-80
2022/05/05 04:08:33;;;;;;;10.02;5.75;;;8.40;99.90;;;;;;5057301;28;20033;-81
2022/05/05 04:10:59;;;;;;;13.07;6.25;;;8.40;99.90;;;;;;5056271;28;20119;-81
2022/05/05 04:13:27;;;;;;;15.02;7.00;;;8.40;99.90;;;;;;5056889;28;20032;-83
2022/05/05 04:15:53;;;;;;;13.35;6.75;;;8.40;99.90;;;;;;5059566;28;20376;-83
2022/05/05 04:18:20;;;;;;;11.70;7.18;;;8.40;99.90;;;;;;5076359;28;20052;-80
2022/05/05 04:20:49;;;;;;;14.77;6.50;;;8.40;99.90;;;;;;5057044;28;20109;-82
2022/05/05 04:23:16;;;;;;;11.68;6.70;;;8.40;99.90;;;;;;5057116;28;20043;-82
2022/05/05 04:25:43;;;;;;;13.50;6.85;;;8.50;99.90;;;;;;5056942;28;20372;-78
2022/05/05 04:28:11;;;;;;;11.30;5.63;;;8.50;99.90;;;;;;5074301;28;20025;-81
2022/05/05 04:30:38;;;;;;;9.13;5.50;;;8.40;99.90;;;;;;5055447;28;20027;-80
2022/05/05 04:33:04;;;;;;;9.07;5.63;;;8.50;99.90;;;;;;5073595;28;20060;-78
2022/05/05 04:35:30;;;;;;;12.07;6.22;;;8.60;99.90;;;;;;5055171;28;20027;-81
2022/05/05 04:37:56;;;;;;;12.02;6.22;;;8.60;99.90;;;;;;5055095;28;20042;-82
2022/05/05 04:40:23;;;;;;;13.70;6.32;;;8.70;99.90;;;;;;5073558;28;20104;-79
2022/05/05 04:42:48;;;;;;;16.45;6.35;;;8.70;99.90;;;;;;5055144;28;20472;-77
2022/05/05 04:45:14;;;;;;;14.52;5.97;;;8.90;99.90;;;;;;5073208;28;20119;-79
2022/05/05 04:47:39;;;;;;;10.63;6.60;;;8.90;99.90;;;;;;5075034;28;20012;-78
2022/05/05 04:50:06;;;;;;;8.77;5.20;;;9.00;99.90;;;;;;5074484;28;20025;-81
2022/05/05 04:52:32;;;;;;;10.82;5.00;;;9.10;99.90;;;;;;5076690;28;20050;-81
2022/05/05 04:54:58;;;;;;;10.80;5.07;;;9.20;99.90;;;;;;5077619;28;20074;-82
2022/05/05 04:57:24;;;;;;;12.40;5.78;;;9.30;99.90;;;;;;5059462;28;20294;-81
2022/05/05 04:59:50;;;;;;;12.95;5.55;;;9.30;99.90;;;;;;5077273;28;20078;-79
2022/05/05 05:02:15;;;;;;;10.57;6.10;;;9.30;99.90;;;;;;5079868;28;20025;-81
2022/05/05 05:04:41;;;;;;;10.70;5.97;;;9.40;99.90;;;;;;5059626;28;20468;-81
2022/05/05 05:07:07;;;;;;;11.90;5.97;;;9.40;99.90;;;;;;5059101;28;20028;-78
2022/05/05 05:09:34;;;;;;;13.38;7.13;;;9.50;99.90;;;;;;5059295;28;20020;-79
2022/05/05 05:12:00;;;;;;;9.02;5.55;;;9.50;99.90;;;;;;5077904;28;20080;-80
2022/05/05 05:14:26;;;;;;;12.07;6.03;;;9.60;99.90;;;;;;5078355;28;20063;-81
2022/05/05 05:16:52;;;;;;;11.25;5.93;;;9.70;99.90;;;;;;5059674;28;20468;-80
2022/05/05 05:19:19;;;;;;;11.02;6.47;;;9.80;99.90;;;;;;5077068;28;20020;-79
2022/05/05 05:21:45;;;;;;;12.73;6.82;;;9.90;99.90;;;;;;5076963;28;20036;-80
2022/05/05 05:24:11;;;;;;;12.27;6.05;;;10.00;99.90;;;;;;5077088;28;20071;-80
2022/05/05 05:26:38;;;;;;;9.90;5.65;;;10.10;99.90;;;;;;5058984;28;20350;-83
2022/05/05 05:29:03;;;;;;;15.52;6.88;;;10.20;99.90;;;;;;5058826;28;20108;-81
2022/05/05 05:31:29;;;;;;;11.77;6.35;;;10.30;99.90;;;;;;5059680;28;20059;-81
2022/05/05 05:33:55;;;;;;;10.30;6.13;;;10.40;99.90;;;;;;5076774;28;20031;-81
2022/05/05 05:36:20;;;;;;;10.15;6.50;;;10.60;99.90;;;;;;5076945;28;20075;-83
2022/05/05 05:38:46;;;;;;;11.88;6.47;;;10.60;99.90;;;;;;5077703;28;20064;-82
2022/05/05 05:41:11;;;;;;;8.65;5.43;;;10.70;99.90;;;;;;5076984;28;20032;-79
2022/05/05 05:43:37;;;;;;;12.07;6.60;;;10.80;99.90;;;;;;5076449;28;20111;-81
2022/05/05 05:46:03;;;;;;;15.27;7.13;;;10.80;99.90;;;;;;5059049;28;20055;-80
2022/05/05 05:48:28;;;;;;;12.85;7.18;;;10.90;99.90;;;;;;5058034;28;20143;-79
2022/05/05 05:50:55;;;;;;;13.80;6.95;;;11.00;99.90;;;;;;5076313;28;20032;-81
2022/05/05 05:53:21;;;;;;;12.30;6.03;;;11.10;99.90;;;;;;5058134;28;20090;-82
2022/05/05 05:55:47;;;;;;;8.32;5.93;;;11.20;99.90;;;;;;5075609;28;20078;-80
2022/05/05 05:58:13;;;;;;;9.43;6.38;;;11.40;99.90;;;;;;5076135;28;20048;-80
2022/05/05 06:00:39;;;;;;;8.65;6.00;;;11.50;99.90;;;;;;5076200;28;20032;-83
2022/05/05 06:05:49;;;;;;;11.15;6.78;;;11.70;99.90;;;;;;5076837;28;20027;-82
2022/05/05 06:08:15;;;;;;;20.40;7.53;;;11.80;99.90;;;;;;5058458;28;20064;-82
2022/05/05 06:10:41;;;;;;;18.38;7.22;;;11.80;99.90;;;;;;5059788;28;20494;-80
2022/05/05 06:13:09;;;;;;;17.77;7.80;;;11.90;99.90;;;;;;5079818;28;20035;-82
2022/05/05 06:15:35;;;;;;;17.63;7.40;;;11.90;99.90;;;;;;5079155;28;20048;-78
2022/05/05 06:18:00;;;;;;;13.20;7.05;;;12.00;99.90;;;;;;5057372;28;20047;-80
2022/05/05 06:20:26;;;;;;;13.00;6.63;;;12.00;99.90;;;;;;5057214;28;20150;-80
2022/05/05 06:22:51;;;;;;;16.83;7.65;;;12.00;99.90;;;;;;5076178;28;20033;-79
2022/05/05 06:25:19;;;;;;;17.70;7.80;;;12.10;99.90;;;;;;5057541;28;20020;-79
2022/05/05 06:27:44;;;;;;;20.98;8.07;;;12.20;99.90;;;;;;5075187;28;20039;-80
2022/05/05 06:30:13;;;;;;;18.05;7.97;;;12.30;99.90;;;;;;5075164;28;20626;-79
2022/05/05 06:32:39;;;;;;;21.05;9.00;;;12.50;99.90;;;;;;5057242;28;20021;-80
2022/05/05 06:35:05;;;;;;;16.10;7.75;;;12.60;99.90;;;;;;5075577;28;20419;-82
2022/05/05 06:37:30;;;;;;;25.33;9.18;;;12.80;99.90;;;;;;5075667;28;20449;-80
2022/05/05 06:39:56;;;;;;;18.38;8.23;;;12.90;99.90;;;;;;5076378;28;20084;-81
2022/05/05 06:42:22;;;;;;;18.33;8.07;;;13.00;99.90;;;;;;5077207;28;20056;-82
2022/05/05 06:44:48;;;;;;;13.10;6.85;;;13.20;99.90;;;;;;5078370;28;20039;-83
2022/05/05 06:47:13;;;;;;;17.15;6.82;;;13.30;99.90;;;;;;5082756;28;20020;-81
2022/05/05 06:49:39;;;;;;;14.55;7.13;;;13.60;99.90;;;;;;5071707;28;20017;-81
2022/05/05 06:52:05;;;;;;;18.30;7.72;;;13.60;99.90;;;;;;5086574;28;20051;-84
2022/05/05 06:54:30;;;;;;;13.70;6.80;;;13.80;99.90;;;;;;5082314;28;20082;-81
2022/05/05 06:56:56;;;;;;;13.70;7.45;;;14.00;99.90;;;;;;5074879;28;20028;-82
2022/05/05 06:59:24;;;;;;;17.25;7.38;;;14.20;99.90;;;;;;5075039;28;20020;-80
2022/05/05 07:01:52;;;;;;;14.02;6.93;;;14.40;99.90;;;;;;5074862;28;20021;-79
2022/05/05 07:07:04;;;;;;;16.67;8.07;;;14.90;99.90;;;;;;5074687;28;20040;-81
2022/05/05 07:12:16;;;;;;;13.27;6.95;;;15.40;99.90;;;;;;5074432;28;20074;-81
2022/05/05 07:14:45;;;;;;;13.43;7.45;;;15.50;99.90;;;;;;5073328;28;20021;-81
2022/05/05 07:17:12;;;;;;;18.70;8.60;;;15.80;99.90;;;;;;5056596;28;20024;-80
2022/05/05 07:19:38;;;;;;;17.42;7.85;;;15.90;99.90;;;;;;5074508;28;20020;-84
2022/05/05 07:22:04;;;;;;;17.75;8.10;;;16.00;99.90;;;;;;5057614;28;20460;-82
2022/05/05 07:24:30;;;;;;;17.00;8.15;;;16.10;99.90;;;;;;5074960;28;20021;-77
2022/05/05 07:26:56;;;;;;;17.90;7.75;;;16.20;99.90;;;;;;5075377;28;20084;-83
2022/05/05 07:29:22;;;;;;;15.73;7.63;;;16.30;99.90;;;;;;5058238;28;20085;-82
2022/05/05 07:31:48;;;;;;;22.27;8.52;;;16.40;99.90;;;;;;5059211;28;20029;-83
2022/05/05 07:34:14;;;;;;;17.45;7.65;;;16.60;99.90;;;;;;5059318;28;20028;-82
2022/05/05 07:36:39;;;;;;;15.00;6.93;;;16.50;97.60;;;;;;5058877;28;20032;-83
2022/05/05 07:39:05;;;;;;;19.85;7.60;;;16.40;98.40;;;;;;5078551;28;20028;-83
2022/05/05 07:41:31;;;;;;;13.05;5.85;;;16.60;97.40;;;;;;5058917;28;20024;-81
2022/05/05 07:44:00;;;;;;;13.43;6.25;;;16.60;94.20;;;;;;5074848;28;20113;-80
2022/05/05 07:46:26;;;;;;;13.88;6.10;;;16.60;90.50;;;;;;5057432;28;20400;-80
2022/05/05 07:48:52;;;;;;;14.25;6.05;;;16.70;91.60;;;;;;5075056;28;20023;-81
2022/05/05 07:51:17;;;;;;;13.38;5.90;;;17.00;92.30;;;;;;5074609;28;20016;-80
2022/05/05 07:54:34;;;;;;;13.23;6.05;;;17.20;92.20;;;;;;5056742;28;20538;-80
2022/05/05 07:56:29;;;;;;;17.63;6.28;;;17.30;86.30;;;;;;5073695;28;20024;-81
2022/05/05 07:58:54;;;;;;;17.30;6.25;;;17.50;83.50;;;;;;5073236;28;20039;-81
2022/05/05 08:01:20;;;;;;;12.68;5.65;;;17.60;80.90;;;;;;5074010;28;20036;-80
2022/05/05 08:03:45;;;;;;;13.88;5.80;;;17.80;80.90;;;;;;5055906;28;20036;-81
2022/05/05 08:06:12;;;;;;;19.13;7.28;;;18.20;75.20;;;;;;5074619;28;20029;-79
2022/05/05 08:08:37;;;;;;;15.80;7.10;;;18.50;73.00;;;;;;5074260;28;20067;-82
2022/05/05 08:11:03;;;;;;;16.33;6.75;;;18.70;73.70;;;;;;5055778;28;20473;-80
2022/05/05 08:13:28;;;;;;;13.23;6.18;;;19.10;70.80;;;;;;5074243;28;20094;-78
2022/05/05 08:15:54;;;;;;;15.60;7.53;;;19.40;70.30;;;;;;5073880;28;20035;-79
2022/05/05 08:18:19;;;;;;;17.00;7.70;;;19.70;68.70;;;;;;5056024;28;20025;-83
2022/05/05 08:20:45;;;;;;;19.95;8.50;;;20.10;69.20;;;;;;5074356;28;20067;-81
2022/05/05 08:23:12;;;;;;;18.15;7.57;;;20.20;67.20;;;;;;5057194;28;20082;-81
2022/05/05 08:28:28;;;;;;;16.27;7.55;;;19.90;67.30;;;;;;5087827;28;20043;-83
2022/05/05 08:30:53;;;;;;;15.25;7.75;;;20.10;70.40;;;;;;5060253;28;20031;-80
2022/05/05 08:33:19;;;;;;;18.80;7.82;;;20.60;71.30;;;;;;5077284;28;20107;-83
2022/05/05 08:35:45;;;;;;;18.08;9.50;;;21.10;64.90;;;;;;5058668;28;20021;-79
2022/05/05 08:38:10;;;;;;;22.38;11.07;;;21.50;62.70;;;;;;5076644;28;20028;-83
2022/05/05 08:40:40;;;;;;;19.20;10.80;;;21.40;61.20;;;;;;5076809;28;20484;-82
2022/05/05 08:43:05;;;;;;;21.35;10.07;;;21.00;61.00;;;;;;5076697;28;20024;-79
2022/05/05 08:45:32;;;;;;;19.63;10.27;;;20.60;62.50;;;;;;5077252;28;20158;-79
2022/05/05 08:48:01;;;;;;;16.75;9.75;;;20.70;63.20;;;;;;5076510;28;20391;-78
2022/05/05 08:50:27;;;;;;;16.27;9.52;;;20.80;61.90;;;;;;5076597;28;20024;-82
2022/05/05 08:52:53;;;;;;;14.93;9.27;;;21.00;61.30;;;;;;5058750;28;20490;-81
2022/05/05 08:55:20;;;;;;;15.00;9.73;;;21.00;62.40;;;;;;5060404;28;20039;-81
2022/05/05 08:57:46;;;;;;;13.57;8.27;;;20.90;62.20;;;;;;5078170;28;20395;-82
2022/05/05 09:00:14;;;;;;;18.48;11.15;;;20.90;61.70;;;;;;5077951;28;20103;-80
2022/05/05 09:02:41;;;;;;;20.20;10.13;;;21.00;61.10;;;;;;5058554;28;20039;-82
2022/05/05 09:05:08;;;;;;;19.13;9.90;;;20.90;61.10;;;;;;5076679;28;20029;-82
2022/05/05 09:07:52;;;;;;;15.80;9.10;;;20.80;61.70;;;;;;5077063;28;20490;-80
2022/05/05 09:10:19;;;;;;;15.77;8.93;;;20.90;62.60;;;;;;5058738;28;20020;-82
2022/05/05 09:12:59;;;;;;;22.08;11.63;;;20.90;63.00;;;;;;5059832;28;20578;-85
2022/05/05 09:15:33;;;;;;;21.30;12.30;;;20.90;63.00;;;;;;5077100;28;20024;-84
2022/05/05 09:18:15;;;;;;;24.02;11.73;;;21.00;62.20;;;;;;5077425;28;20059;-82
2022/05/05 09:20:43;;;;;;;24.33;11.48;;;21.10;63.30;;;;;;5077871;28;20138;-85
2022/05/05 09:23:09;;;;;;;23.88;12.13;;;21.10;61.90;;;;;;5060088;28;20029;-83
2022/05/05 09:25:48;;;;;;;19.90;12.32;;;21.20;60.60;;;;;;5078160;28;20427;-87
2022/05/05 09:28:18;;;;;;;19.77;11.80;;;21.40;59.40;;;;;;5059862;28;20024;-84
2022/05/05 09:30:52;;;;;;;18.77;11.73;;;21.60;60.50;;;;;;5061016;28;20460;-86
2022/05/05 09:33:35;;;;;;;30.38;13.52;;;21.70;59.70;;;;;;5079981;28;20032;-88
2022/05/05 09:36:28;;;;;;;29.20;14.00;;;21.80;59.90;;;;;;5080508;28;20583;-86
2022/05/05 09:39:00;;;;;;;17.77;10.63;;;21.90;58.50;;;;;;5054809;28;20048;-87
2022/05/05 09:41:28;;;;;;;23.63;11.80;;;22.00;60.30;;;;;;5059136;28;20495;-85
2022/05/05 09:43:55;;;;;;;24.75;11.73;;;22.30;60.10;;;;;;5058316;28;20028;-85
2022/05/05 09:46:27;;;;;;;23.92;12.65;;;22.40;59.60;;;;;;5058788;28;20021;-83
2022/05/05 09:48:53;;;;;;;17.15;10.52;;;22.50;57.90;;;;;;5076858;28;20020;-85
2022/05/05 09:51:20;;;;;;;15.15;9.00;;;22.40;58.30;;;;;;5058537;28;20021;-84
2022/05/05 09:59:39;;;;;;;19.17;10.30;;;22.60;60.00;;;;;;5034850;28;20045;-86
2022/05/05 10:02:12;;;;;;;17.40;9.90;;;22.90;57.60;;;;;;5069711;28;20032;-85
2022/05/05 10:04:39;;;;;;;16.52;9.85;;;22.80;56.20;;;;;;5075885;28;20045;-84
2022/05/05 10:07:06;;;;;;;21.38;9.80;;;23.00;56.10;;;;;;5075853;28;20400;-86
2022/05/05 10:09:32;;;;;;;17.02;10.73;;;22.70;56.60;;;;;;5058356;28;20111;-86
2022/05/05 10:11:59;;;;;;;15.90;10.20;;;22.70;56.10;;;;;;5058263;28;20031;-83
2022/05/05 10:14:25;;;;;;;13.07;8.23;;;22.40;57.20;;;;;;5057942;28;20025;-86
2022/05/05 10:16:52;;;;;;;18.15;11.35;;;22.30;57.80;;;;;;5058142;28;20111;-87
2022/05/05 10:19:18;;;;;;;14.88;9.23;;;22.30;57.60;;;;;;5075721;28;20452;-84
2022/05/05 10:21:50;;;;;;;16.50;10.45;;;22.30;58.20;;;;;;5057384;28;20024;-83
2022/05/05 10:24:21;;;;;;;17.02;11.27;;;22.50;56.80;;;;;;5075213;28;20087;-84
2022/05/05 10:26:52;;;;;;;16.65;10.60;;;22.50;56.30;;;;;;5057598;28;20400;-85
2022/05/05 10:29:39;;;;;;;18.27;10.75;;;22.70;56.30;;;;;;5076127;28;20027;-85
2022/05/05 10:32:11;;;;;;;16.20;10.23;;;22.60;56.60;;;;;;5058372;28;20035;-84
2022/05/05 10:34:41;;;;;;;14.75;9.75;;;22.50;56.80;;;;;;5077540;28;20020;-83
2022/05/05 10:37:14;;;;;;;15.55;8.60;;;22.60;56.50;;;;;;5079213;28;20449;-83
2022/05/05 10:39:44;;;;;;;18.50;11.00;;;22.80;55.70;;;;;;5080537;28;20383;-82
2022/05/05 10:42:14;;;;;;;13.27;9.20;;;22.50;55.20;;;;;;5079455;28;20094;-84
2022/05/05 10:45:10;;;;;;;15.32;10.18;;;22.30;57.30;;;;;;5064473;28;20024;-84
2022/05/05 10:48:06;;;;;;;16.93;10.30;;;22.00;57.60;;;;;;5086478;28;20017;-84
2022/05/05 10:50:33;;;;;;;15.88;9.82;;;21.50;58.80;;;;;;5064329;28;20028;-86
2022/05/05 10:53:01;;;;;;;15.02;10.63;;;21.50;60.70;;;;;;5079449;28;20507;-84
2022/05/05 10:55:40;;;;;;;16.13;9.32;;;21.90;58.80;;;;;;5079529;28;20028;-83
2022/05/05 10:58:09;;;;;;;20.40;10.52;;;22.20;58.80;;;;;;5056766;28;20066;-85
2022/05/05 11:00:44;;;;;;;14.68;8.52;;;22.40;57.80;;;;;;5074456;28;20024;-81
2022/05/05 11:03:10;;;;;;;15.93;9.52;;;22.80;58.10;;;;;;5056916;28;20024;-83
2022/05/05 11:05:36;;;;;;;14.10;8.80;;;23.10;55.50;;;;;;5074087;28;20043;-84
2022/05/05 11:08:14;;;;;;;14.27;8.48;;;23.30;54.70;;;;;;5056448;28;20024;-84
2022/05/05 11:13:38;;;;;;;14.02;8.90;;;22.00;56.40;;;;;;5074035;28;20145;-85
2022/05/05 11:22:17;;;;;;;15.32;9.05;;;22.20;57.60;;;;;;5074838;28;20055;-82
2022/05/05 11:24:46;;;;;;;12.57;7.22;;;22.40;56.00;;;;;;5074694;28;20032;-82
2022/05/05 11:27:16;;;;;;;14.73;8.63;;;22.90;56.80;;;;;;5056058;28;20025;-83
2022/05/05 11:29:56;;;;;;;15.07;8.95;;;23.10;56.30;;;;;;5073992;28;20448;-84
2022/05/05 11:32:29;;;;;;;11.52;7.72;;;23.20;54.20;;;;;;5074366;28;20388;-82
2022/05/05 11:34:54;;;;;;;13.80;8.10;;;23.40;54.70;;;;;;5056926;28;20024;-87
2022/05/05 11:37:20;;;;;;;15.90;9.30;;;23.30;54.00;;;;;;5056561;28;20074;-85
2022/05/05 11:39:50;;;;;;;12.07;7.82;;;23.00;53.40;;;;;;5056183;28;20097;-82
2022/05/05 11:42:16;;;;;;;11.02;6.68;;;22.60;57.10;;;;;;5056995;28;20028;-82
2022/05/05 11:44:43;;;;;;;12.82;7.47;;;22.70;57.20;;;;;;5056138;28;20032;-85
2022/05/05 11:47:20;;;;;;;11.95;7.65;;;22.40;56.80;;;;;;5073503;28;20027;-83
2022/05/05 11:49:52;;;;;;;9.82;6.47;;;22.00;57.00;;;;;;5073879;28;20036;-85
2022/05/05 11:52:24;;;;;;;12.55;7.55;;;21.60;58.60;;;;;;5074329;28;20032;-84
2022/05/05 11:54:55;;;;;;;15.13;7.97;;;21.10;59.40;;;;;;5056574;28;20025;-81
2022/05/05 11:57:34;;;;;;;11.68;7.07;;;20.50;60.70;;;;;;5074703;28;20027;-82
2022/05/05 12:02:44;;;;;;;9.48;6.57;;;20.40;63.20;;;;;;5085229;28;20073;-85
2022/05/05 12:05:10;;;;;;;12.73;7.22;;;21.20;61.60;;;;;;5082478;28;20464;-86
2022/05/05 12:07:36;;;;;;;8.43;5.50;;;22.20;56.80;;;;;;5079008;28;20060;-85
2022/05/05 12:10:08;;;;;;;11.75;7.32;;;22.90;56.90;;;;;;5079729;28;20077;-84
2022/05/05 12:12:37;;;;;;;12.00;6.03;;;23.50;55.30;;;;;;5062608;28;20028;-84
2022/05/05 12:15:06;;;;;;;12.13;6.60;;;24.30;55.60;;;;;;5063351;28;20174;-85
2022/05/05 12:17:39;;;;;;;11.80;6.07;;;24.90;52.40;;;;;;5082397;28;20021;-86
2022/05/05 12:20:07;;;;;;;7.43;5.20;;;24.90;51.10;;;;;;5083275;28;20021;-86
2022/05/05 12:22:37;;;;;;;8.52;5.43;;;24.30;51.80;;;;;;5064197;28;20025;-84
2022/05/05 12:25:16;;;;;;;7.78;4.97;;;23.70;51.80;;;;;;5085230;28;20027;-83
2022/05/05 12:27:45;;;;;;;10.82;5.28;;;22.90;53.30;;;;;;5083913;28;20032;-82
2022/05/05 12:30:12;;;;;;;12.70;6.35;;;22.30;55.80;;;;;;5060244;28;20017;-82
2022/05/05 12:32:51;;;;;;;8.90;5.28;;;21.90;57.30;;;;;;5078025;28;20111;-82
2022/05/05 12:35:27;;;;;;;8.98;5.47;;;21.50;56.60;;;;;;5059998;28;20040;-83
2022/05/05 12:38:00;;;;;;;11.05;5.28;;;21.30;57.40;;;;;;5078447;28;20427;-84
2022/05/05 12:40:26;;;;;;;9.40;5.13;;;21.20;56.70;;;;;;5077675;28;20075;-84
2022/05/05 12:43:08;;;;;;;8.30;4.88;;;20.90;56.20;;;;;;5059386;28;20194;-84
2022/05/05 12:45:36;;;;;;;11.73;6.30;;;20.90;57.90;;;;;;5078084;28;20048;-81
2022/05/05 12:48:05;;;;;;;7.93;4.80;;;21.40;58.50;;;;;;5079191;28;20027;-83
2022/05/05 12:50:40;;;;;;;9.00;5.15;;;21.80;58.70;;;;;;5079497;28;20052;-82
2022/05/05 13:01:30;;;;;;;7.18;4.50;;;23.50;54.40;;;;;;5079265;28;20502;-85
2022/05/05 13:04:08;;;;;;;8.32;4.30;;;23.00;53.80;;;;;;5079753;28;20027;-86
2022/05/05 13:06:36;;;;;;;8.43;4.20;;;22.50;55.50;;;;;;5086316;28;20024;-85
2022/05/05 13:09:05;;;;;;;7.22;4.20;;;22.30;53.20;;;;;;5070082;28;20425;-84
2022/05/05 13:11:30;;;;;;;5.53;3.33;;;21.80;55.20;;;;;;5077673;28;20017;-80
2022/05/05 13:13:56;;;;;;;6.03;3.33;;;21.30;55.10;;;;;;5077022;28;20032;-81
2022/05/05 13:16:21;;;;;;;6.97;3.60;;;20.90;57.40;;;;;;5078678;28;20024;-84
2022/05/05 13:18:47;;;;;;;10.23;4.72;;;20.60;58.10;;;;;;5077475;28;20028;-85
2022/05/05 13:21:13;;;;;;;9.07;4.38;;;20.20;58.10;;;;;;5059721;28;20028;-80
2022/05/05 13:23:38;;;;;;;5.72;4.00;;;19.80;59.60;;;;;;5077627;28;20085;-82
2022/05/05 13:26:04;;;;;;;6.25;3.60;;;19.70;61.00;;;;;;5077759;28;20024;-81
2022/05/05 13:28:34;;;;;;;5.75;3.75;;;19.60;61.20;;;;;;5076453;28;20021;-82
2022/05/05 13:31:00;;;;;;;5.00;3.22;;;19.50;62.50;;;;;;5077089;28;20025;-82
2022/05/05 13:33:25;;;;;;;5.53;3.40;;;19.50;63.50;;;;;;5059328;28;20025;-80